sensor_id;sensor_type;location;lat;lon;timestamp;temperature;humidity
56103;DHT22;41970;48.774;9.280;2022-10-19T00:00:43;15.00;99.90
56103;DHT22;41970;48.774;9.280;2022-10-19T00:03:08;15.00;99.90
56103;DHT22;41970;48.774;9.280;2022-10-19T00:05:34;15.00;99.90
56103;DHT22;41970;48.774;9.280;2022-10-19T00:08:00;15.00;99.90
56103;DHT22;41970;48.774;9.280;2022-10-19T00:10:27;14.90;99.90
56103;DHT22;41970;48.774;9.280;2022-10-19T00:12:53;14.80;99.90
56103;DHT22;41970;48.774;9.280;2022-10-19T00:15:19;14.80;99.90
56103;DHT22;41970;48.774;9.280;2022-10-19T00:17:45;14.60;99.90
56103;DHT22;41970;48.774;9.280;2022-10-19T00:20:11;14.50;99.90
56103;DHT22;41970;48.774;9.280;2022-10-19T00:22:37;14.50;99.90
56103;DHT22;41970;48.774;9.280;2022-10-19T00:25:04;14.50;99.90
56103;DHT22;41970;48.774;9.280;2022-10-19T00:27:29;14.50;99.90
56103;DHT22;41970;48.774;9.280;2022-10-19T00:29:55;14.50;99.90
56103;DHT22;41970;48.774;9.280;2022-10-19T00:32:21;14.60;99.90
56103;DHT22;41970;48.774;9.280;2022-10-19T00:34:47;14.70;99.90
56103;DHT22;41970;48.774;9.280;2022-10-19T00:37:13;14.50;99.90
56103;DHT22;41970;48.774;9.280;2022-10-19T00:39:39;14.50;99.90
56103;DHT22;41970;48.774;9.280;2022-10-19T00:42:05;14.50;99.90
56103;DHT22;41970;48.774;9.280;2022-10-19T00:47:01;14.40;99.90
56103;DHT22;41970;48.774;9.280;2022-10-19T00:49:30;14.40;99.90
56103;DHT22;41970;48.774;9.280;2022-10-19T00:52:01;14.30;99.90
56103;DHT22;41970;48.774;9.280;2022-10-19T00:54:29;14.20;99.90
56103;DHT22;41970;48.774;9.280;2022-10-19T00:56:56;14.30;99.90
56103;DHT22;41970;48.774;9.280;2022-10-19T00:59:24;14.20;99.90
56103;DHT22;41970;48.774;9.280;2022-10-19T01:01:51;14.10;99.90
56103;DHT22;41970;48.774;9.280;2022-10-19T01:04:20;14.20;99.90
56103;DHT22;41970;48.774;9.280;2022-10-19T01:06:46;14.20;99.90
56103;DHT22;41970;48.774;9.280;2022-10-19T01:09:12;14.20;99.90
56103;DHT22;41970;48.774;9.280;2022-10-19T01:14:28;14.20;99.90
56103;DHT22;41970;48.774;9.280;2022-10-19T01:25:34;14.30;99.90
56103;DHT22;41970;48.774;9.280;2022-10-19T01:28:49;14.20;99.90
56103;DHT22;41970;48.774;9.280;2022-10-19T01:31:39;14.20;99.90
56103;DHT22;41970;48.774;9.280;2022-10-19T01:42:27;14.50;99.90
56103;DHT22;41970;48.774;9.280;2022-10-19T01:47:29;14.60;99.90
56103;DHT22;41970;48.774;9.280;2022-10-19T01:50:18;14.60;99.90
56103;DHT22;41970;48.774;9.280;2022-10-19T01:52:49;14.60;99.90
56103;DHT22;41970;48.774;9.280;2022-10-19T01:55:17;14.70;99.90
56103;DHT22;41970;48.774;9.280;2022-10-19T01:57:49;14.70;99.90
56103;DHT22;41970;48.774;9.280;2022-10-19T02:00:16;14.70;99.90
56103;DHT22;41970;48.774;9.280;2022-10-19T02:02:49;14.70;99.90
56103;DHT22;41970;48.774;9.280;2022-10-19T02:05:18;14.70;99.90
56103;DHT22;41970;48.774;9.280;2022-10-19T02:07:52;14.70;99.90
56103;DHT22;41970;48.774;9.280;2022-10-19T02:10:19;14.60;99.90
56103;DHT22;41970;48.774;9.280;2022-10-19T02:12:46;14.70;99.90
56103;DHT22;41970;48.774;9.280;2022-10-19T02:15:15;14.70;99.90
56103;DHT22;41970;48.774;9.280;2022-10-19T02:17:45;14.80;99.90
56103;DHT22;41970;48.774;9.280;2022-10-19T02:20:13;14.90;99.90
56103;DHT22;41970;48.774;9.280;2022-10-19T02:22:39;14.90;99.90
56103;DHT22;41970;48.774;9.280;2022-10-19T02:25:06;14.90;99.90
56103;DHT22;41970;48.774;9.280;2022-10-19T02:27:32;15.00;99.90
56103;DHT22;41970;48.774;9.280;2022-10-19T02:29:59;15.00;99.90
56103;DHT22;41970;48.774;9.280;2022-10-19T02:32:25;15.10;99.90
56103;DHT22;41970;48.774;9.280;2022-10-19T02:34:51;15.20;99.90
56103;DHT22;41970;48.774;9.280;2022-10-19T02:37:17;15.20;99.90
56103;DHT22;41970;48.774;9.280;2022-10-19T02:39:43;15.20;99.90
56103;DHT22;41970;48.774;9.280;2022-10-19T02:42:16;15.20;99.90
56103;DHT22;41970;48.774;9.280;2022-10-19T02:47:29;15.20;99.90
56103;DHT22;41970;48.774;9.280;2022-10-19T02:49:55;15.20;99.90
56103;DHT22;41970;48.774;9.280;2022-10-19T02:52:21;15.30;99.90
56103;DHT22;41970;48.774;9.280;2022-10-19T02:54:47;15.40;99.90
56103;DHT22;41970;48.774;9.280;2022-10-19T02:57:18;15.40;99.90
56103;DHT22;41970;48.774;9.280;2022-10-19T02:59:44;15.50;99.90
56103;DHT22;41970;48.774;9.280;2022-10-19T03:02:11;15.50;99.90
56103;DHT22;41970;48.774;9.280;2022-10-19T03:04:37;15.50;99.90
56103;DHT22;41970;48.774;9.280;2022-10-19T03:07:02;15.40;99.90
56103;DHT22;41970;48.774;9.280;2022-10-19T03:09:28;15.40;99.90
56103;DHT22;41970;48.774;9.280;2022-10-19T03:11:55;15.30;99.90
56103;DHT22;41970;48.774;9.280;2022-10-19T03:14:21;15.30;99.90
56103;DHT22;41970;48.774;9.280;2022-10-19T03:16:46;15.30;99.90
56103;DHT22;41970;48.774;9.280;2022-10-19T03:19:12;15.20;99.90
56103;DHT22;41970;48.774;9.280;2022-10-19T03:21:38;15.20;99.90
56103;DHT22;41970;48.774;9.280;2022-10-19T03:24:04;15.20;99.90
56103;DHT22;41970;48.774;9.280;2022-10-19T03:26:30;15.30;99.90
56103;DHT22;41970;48.774;9.280;2022-10-19T03:28:56;15.40;99.90
56103;DHT22;41970;48.774;9.280;2022-10-19T03:31:22;15.40;99.90
56103;DHT22;41970;48.774;9.280;2022-10-19T03:33:49;15.40;99.90
56103;DHT22;41970;48.774;9.280;2022-10-19T03:36:29;15.50;99.90
56103;DHT22;41970;48.774;9.280;2022-10-19T03:38:58;15.60;99.90
56103;DHT22;41970;48.774;9.280;2022-10-19T03:41:26;15.70;99.90
56103;DHT22;41970;48.774;9.280;2022-10-19T03:43:52;15.70;99.90
56103;DHT22;41970;48.774;9.280;2022-10-19T03:46:19;15.70;99.90
56103;DHT22;41970;48.774;9.280;2022-10-19T03:48:45;15.70;99.90
56103;DHT22;41970;48.774;9.280;2022-10-19T03:51:30;15.80;99.90
56103;DHT22;41970;48.774;9.280;2022-10-19T03:54:01;15.90;99.90
56103;DHT22;41970;48.774;9.280;2022-10-19T03:56:28;15.80;99.90
56103;DHT22;41970;48.774;9.280;2022-10-19T03:58:56;15.80;99.90
56103;DHT22;41970;48.774;9.280;2022-10-19T04:01:25;15.80;99.90
56103;DHT22;41970;48.774;9.280;2022-10-19T04:03:56;15.90;99.90
56103;DHT22;41970;48.774;9.280;2022-10-19T04:06:28;15.80;99.90
56103;DHT22;41970;48.774;9.280;2022-10-19T04:08:54;15.80;99.90
56103;DHT22;41970;48.774;9.280;2022-10-19T04:11:22;15.60;99.90
56103;DHT22;41970;48.774;9.280;2022-10-19T04:13:53;15.50;99.90
56103;DHT22;41970;48.774;9.280;2022-10-19T04:16:21;15.50;99.90
56103;DHT22;41970;48.774;9.280;2022-10-19T04:18:48;15.40;99.90
56103;DHT22;41970;48.774;9.280;2022-10-19T04:21:21;15.30;99.90
56103;DHT22;41970;48.774;9.280;2022-10-19T04:23:48;15.20;99.90
56103;DHT22;41970;48.774;9.280;2022-10-19T04:26:14;15.20;99.90
56103;DHT22;41970;48.774;9.280;2022-10-19T04:28:40;15.10;99.90
56103;DHT22;41970;48.774;9.280;2022-10-19T04:31:06;15.00;99.90
56103;DHT22;41970;48.774;9.280;2022-10-19T04:33:33;15.10;99.90
56103;DHT22;41970;48.774;9.280;2022-10-19T04:36:03;15.10;99.90
56103;DHT22;41970;48.774;9.280;2022-10-19T04:38:29;15.00;99.90
56103;DHT22;41970;48.774;9.280;2022-10-19T04:41:33;14.70;99.90
56103;DHT22;41970;48.774;9.280;2022-10-19T04:43:58;14.40;99.90
56103;DHT22;41970;48.774;9.280;2022-10-19T04:46:25;14.40;99.90
56103;DHT22;41970;48.774;9.280;2022-10-19T04:48:52;14.30;99.90
56103;DHT22;41970;48.774;9.280;2022-10-19T04:51:19;14.40;99.90
56103;DHT22;41970;48.774;9.280;2022-10-19T04:53:46;14.50;99.90
56103;DHT22;41970;48.774;9.280;2022-10-19T04:56:15;14.60;99.90
56103;DHT22;41970;48.774;9.280;2022-10-19T04:58:41;14.70;99.90
56103;DHT22;41970;48.774;9.280;2022-10-19T05:01:15;14.80;99.90
56103;DHT22;41970;48.774;9.280;2022-10-19T05:03:41;14.70;99.90
56103;DHT22;41970;48.774;9.280;2022-10-19T05:06:08;14.70;99.90
56103;DHT22;41970;48.774;9.280;2022-10-19T05:08:35;14.80;99.90
56103;DHT22;41970;48.774;9.280;2022-10-19T05:11:03;14.80;99.90
56103;DHT22;41970;48.774;9.280;2022-10-19T05:13:31;14.80;99.90
56103;DHT22;41970;48.774;9.280;2022-10-19T05:15:58;14.90;99.90
56103;DHT22;41970;48.774;9.280;2022-10-19T05:18:25;14.70;99.90
56103;DHT22;41970;48.774;9.280;2022-10-19T05:20:59;14.60;99.90
56103;DHT22;41970;48.774;9.280;2022-10-19T05:23:25;14.60;99.90
56103;DHT22;41970;48.774;9.280;2022-10-19T05:26:09;14.70;99.90
56103;DHT22;41970;48.774;9.280;2022-10-19T05:28:36;14.80;99.90
56103;DHT22;41970;48.774;9.280;2022-10-19T05:31:19;14.80;99.90
56103;DHT22;41970;48.774;9.280;2022-10-19T05:33:45;14.90;99.90
56103;DHT22;41970;48.774;9.280;2022-10-19T05:36:26;15.00;99.90
56103;DHT22;41970;48.774;9.280;2022-10-19T05:38:54;15.10;99.90
56103;DHT22;41970;48.774;9.280;2022-10-19T05:41:21;15.10;99.90
56103;DHT22;41970;48.774;9.280;2022-10-19T05:43:51;15.10;99.90
56103;DHT22;41970;48.774;9.280;2022-10-19T05:46:17;15.10;99.90
56103;DHT22;41970;48.774;9.280;2022-10-19T05:48:44;15.20;99.90
56103;DHT22;41970;48.774;9.280;2022-10-19T05:51:12;14.90;99.90
56103;DHT22;41970;48.774;9.280;2022-10-19T05:53:38;14.80;99.90
56103;DHT22;41970;48.774;9.280;2022-10-19T05:56:06;14.60;99.90
56103;DHT22;41970;48.774;9.280;2022-10-19T05:58:33;14.50;99.90
56103;DHT22;41970;48.774;9.280;2022-10-19T06:00:59;14.50;99.90
56103;DHT22;41970;48.774;9.280;2022-10-19T06:03:26;14.60;99.90
56103;DHT22;41970;48.774;9.280;2022-10-19T06:05:53;14.70;99.90
56103;DHT22;41970;48.774;9.280;2022-10-19T06:08:20;14.60;99.90
56103;DHT22;41970;48.774;9.280;2022-10-19T06:10:47;14.70;99.90
56103;DHT22;41970;48.774;9.280;2022-10-19T06:13:14;14.60;99.90
56103;DHT22;41970;48.774;9.280;2022-10-19T06:15:41;14.70;99.90
56103;DHT22;41970;48.774;9.280;2022-10-19T06:18:11;14.80;99.90
56103;DHT22;41970;48.774;9.280;2022-10-19T06:20:39;14.90;99.90
56103;DHT22;41970;48.774;9.280;2022-10-19T06:23:05;14.90;99.90
56103;DHT22;41970;48.774;9.280;2022-10-19T06:25:35;15.10;99.90
56103;DHT22;41970;48.774;9.280;2022-10-19T06:28:01;15.10;99.90
56103;DHT22;41970;48.774;9.280;2022-10-19T06:30:28;15.20;99.90
56103;DHT22;41970;48.774;9.280;2022-10-19T06:32:53;15.30;99.90
56103;DHT22;41970;48.774;9.280;2022-10-19T06:35:19;15.40;99.90
56103;DHT22;41970;48.774;9.280;2022-10-19T06:37:45;15.50;99.90
56103;DHT22;41970;48.774;9.280;2022-10-19T06:40:11;15.40;99.90
56103;DHT22;41970;48.774;9.280;2022-10-19T06:42:37;15.40;99.90
56103;DHT22;41970;48.774;9.280;2022-10-19T06:45:07;15.50;99.90
56103;DHT22;41970;48.774;9.280;2022-10-19T06:47:34;15.50;99.90
56103;DHT22;41970;48.774;9.280;2022-10-19T06:50:01;15.50;99.90
56103;DHT22;41970;48.774;9.280;2022-10-19T06:52:27;15.50;99.90
56103;DHT22;41970;48.774;9.280;2022-10-19T06:54:52;15.40;99.90
56103;DHT22;41970;48.774;9.280;2022-10-19T06:57:18;15.40;99.90
56103;DHT22;41970;48.774;9.280;2022-10-19T06:59:44;15.50;99.90
56103;DHT22;41970;48.774;9.280;2022-10-19T07:02:11;15.60;99.90
56103;DHT22;41970;48.774;9.280;2022-10-19T07:04:37;15.50;99.90
56103;DHT22;41970;48.774;9.280;2022-10-19T07:07:03;15.50;99.90
56103;DHT22;41970;48.774;9.280;2022-10-19T07:09:29;15.50;99.90
56103;DHT22;41970;48.774;9.280;2022-10-19T07:11:54;15.50;99.90
56103;DHT22;41970;48.774;9.280;2022-10-19T07:14:20;15.50;99.90
56103;DHT22;41970;48.774;9.280;2022-10-19T07:16:49;15.50;99.90
56103;DHT22;41970;48.774;9.280;2022-10-19T07:19:16;15.60;99.90
56103;DHT22;41970;48.774;9.280;2022-10-19T07:21:42;15.70;99.90
56103;DHT22;41970;48.774;9.280;2022-10-19T07:24:09;15.70;99.90
56103;DHT22;41970;48.774;9.280;2022-10-19T07:26:35;15.80;99.90
56103;DHT22;41970;48.774;9.280;2022-10-19T07:29:02;15.70;99.90
56103;DHT22;41970;48.774;9.280;2022-10-19T07:31:29;15.70;99.90
56103;DHT22;41970;48.774;9.280;2022-10-19T07:34:02;15.50;99.90
56103;DHT22;41970;48.774;9.280;2022-10-19T07:36:30;15.40;99.90
56103;DHT22;41970;48.774;9.280;2022-10-19T07:38:57;15.30;99.90
56103;DHT22;41970;48.774;9.280;2022-10-19T07:41:24;15.30;99.90
56103;DHT22;41970;48.774;9.280;2022-10-19T07:43:50;15.30;99.90
56103;DHT22;41970;48.774;9.280;2022-10-19T07:46:21;15.40;99.90
56103;DHT22;41970;48.774;9.280;2022-10-19T07:48:48;15.40;99.90
56103;DHT22;41970;48.774;9.280;2022-10-19T07:51:16;15.60;99.90
56103;DHT22;41970;48.774;9.280;2022-10-19T07:53:42;15.80;99.90
56103;DHT22;41970;48.774;9.280;2022-10-19T07:56:19;16.10;99.90
56103;DHT22;41970;48.774;9.280;2022-10-19T07:58:46;16.30;99.90
56103;DHT22;41970;48.774;9.280;2022-10-19T08:01:17;16.40;99.90
56103;DHT22;41970;48.774;9.280;2022-10-19T08:03:44;16.50;99.90
56103;DHT22;41970;48.774;9.280;2022-10-19T08:06:13;16.60;99.90
56103;DHT22;41970;48.774;9.280;2022-10-19T08:08:39;16.60;99.90
56103;DHT22;41970;48.774;9.280;2022-10-19T08:11:10;16.70;99.90
56103;DHT22;41970;48.774;9.280;2022-10-19T08:13:36;16.80;99.90
56103;DHT22;41970;48.774;9.280;2022-10-19T08:16:03;16.70;99.90
56103;DHT22;41970;48.774;9.280;2022-10-19T08:18:30;16.60;99.90
56103;DHT22;41970;48.774;9.280;2022-10-19T08:20:56;16.20;99.90
56103;DHT22;41970;48.774;9.280;2022-10-19T08:23:21;16.10;99.90
56103;DHT22;41970;48.774;9.280;2022-10-19T08:25:48;15.90;99.90
56103;DHT22;41970;48.774;9.280;2022-10-19T08:28:14;15.80;99.90
56103;DHT22;41970;48.774;9.280;2022-10-19T08:30:40;15.80;99.90
56103;DHT22;41970;48.774;9.280;2022-10-19T08:33:05;15.70;99.90
56103;DHT22;41970;48.774;9.280;2022-10-19T08:35:35;15.60;99.90
56103;DHT22;41970;48.774;9.280;2022-10-19T08:38:01;15.60;99.90
56103;DHT22;41970;48.774;9.280;2022-10-19T08:40:29;15.60;99.90
56103;DHT22;41970;48.774;9.280;2022-10-19T08:45:47;15.60;99.90
56103;DHT22;41970;48.774;9.280;2022-10-19T08:48:27;15.50;99.90
56103;DHT22;41970;48.774;9.280;2022-10-19T08:50:55;15.50;99.90
56103;DHT22;41970;48.774;9.280;2022-10-19T09:04:20;16.40;99.90
56103;DHT22;41970;48.774;9.280;2022-10-19T09:09:29;16.60;99.90
56103;DHT22;41970;48.774;9.280;2022-10-19T09:12:00;16.40;99.90
56103;DHT22;41970;48.774;9.280;2022-10-19T09:14:32;16.20;99.90
56103;DHT22;41970;48.774;9.280;2022-10-19T09:17:05;16.10;99.90
56103;DHT22;41970;48.774;9.280;2022-10-19T09:19:34;16.20;99.90
56103;DHT22;41970;48.774;9.280;2022-10-19T09:22:06;16.10;99.90
56103;DHT22;41970;48.774;9.280;2022-10-19T09:24:50;15.80;99.90
56103;DHT22;41970;48.774;9.280;2022-10-19T09:27:25;15.70;99.90
56103;DHT22;41970;48.774;9.280;2022-10-19T09:30:02;15.60;99.90
56103;DHT22;41970;48.774;9.280;2022-10-19T09:32:34;15.60;99.90
56103;DHT22;41970;48.774;9.280;2022-10-19T09:37:48;15.90;99.90
56103;DHT22;41970;48.774;9.280;2022-10-19T09:40:28;15.90;99.90
56103;DHT22;41970;48.774;9.280;2022-10-19T09:42:54;15.80;99.90
56103;DHT22;41970;48.774;9.280;2022-10-19T09:45:39;15.80;99.90
56103;DHT22;41970;48.774;9.280;2022-10-19T09:48:34;15.80;99.90
56103;DHT22;41970;48.774;9.280;2022-10-19T09:51:10;15.80;99.90
56103;DHT22;41970;48.774;9.280;2022-10-19T09:53:37;15.90;99.90
56103;DHT22;41970;48.774;9.280;2022-10-19T09:56:25;15.90;99.90
56103;DHT22;41970;48.774;9.280;2022-10-19T09:58:54;15.80;99.90
56103;DHT22;41970;48.774;9.280;2022-10-19T10:01:49;15.90;99.90
56103;DHT22;41970;48.774;9.280;2022-10-19T10:04:23;15.90;99.90
56103;DHT22;41970;48.774;9.280;2022-10-19T10:06:49;16.00;99.90
56103;DHT22;41970;48.774;9.280;2022-10-19T10:09:24;16.00;99.90
56103;DHT22;41970;48.774;9.280;2022-10-19T10:11:54;16.00;99.90
56103;DHT22;41970;48.774;9.280;2022-10-19T10:17:00;15.90;99.90
56103;DHT22;41970;48.774;9.280;2022-10-19T10:19:28;16.00;99.90
56103;DHT22;41970;48.774;9.280;2022-10-19T10:21:56;16.00;99.90
56103;DHT22;41970;48.774;9.280;2022-10-19T10:24:27;16.10;99.90
56103;DHT22;41970;48.774;9.280;2022-10-19T10:27:02;16.10;99.90
56103;DHT22;41970;48.774;9.280;2022-10-19T10:29:33;16.00;99.90
56103;DHT22;41970;48.774;9.280;2022-10-19T10:32:14;16.00;99.90
56103;DHT22;41970;48.774;9.280;2022-10-19T10:37:37;16.00;99.90
56103;DHT22;41970;48.774;9.280;2022-10-19T10:40:04;16.00;99.90
56103;DHT22;41970;48.774;9.280;2022-10-19T10:42:40;16.10;99.90
56103;DHT22;41970;48.774;9.280;2022-10-19T10:45:37;16.30;99.90
56103;DHT22;41970;48.774;9.280;2022-10-19T10:48:28;16.60;99.90
56103;DHT22;41970;48.774;9.280;2022-10-19T10:50:56;16.90;99.90
56103;DHT22;41970;48.774;9.280;2022-10-19T10:53:40;17.20;99.90
56103;DHT22;41970;48.774;9.280;2022-10-19T10:56:28;17.20;99.90
56103;DHT22;41970;48.774;9.280;2022-10-19T10:59:14;17.10;99.90
56103;DHT22;41970;48.774;9.280;2022-10-19T11:04:44;17.20;99.90
56103;DHT22;41970;48.774;9.280;2022-10-19T11:07:20;17.10;99.90
56103;DHT22;41970;48.774;9.280;2022-10-19T11:09:53;16.90;99.90
56103;DHT22;41970;48.774;9.280;2022-10-19T11:12:38;16.80;99.90
56103;DHT22;41970;48.774;9.280;2022-10-19T11:15:23;16.90;99.90
56103;DHT22;41970;48.774;9.280;2022-10-19T11:18:10;17.00;99.90
56103;DHT22;41970;48.774;9.280;2022-10-19T11:20:41;16.80;99.90
56103;DHT22;41970;48.774;9.280;2022-10-19T11:23:27;16.70;99.90
56103;DHT22;41970;48.774;9.280;2022-10-19T11:26:09;16.90;99.90
56103;DHT22;41970;48.774;9.280;2022-10-19T11:29:28;17.10;99.90
56103;DHT22;41970;48.774;9.280;2022-10-19T11:31:41;17.10;99.90
56103;DHT22;41970;48.774;9.280;2022-10-19T11:40:18;17.10;99.90
56103;DHT22;41970;48.774;9.280;2022-10-19T11:51:31;17.10;99.90
56103;DHT22;41970;48.774;9.280;2022-10-19T12:00:00;17.30;99.90
56103;DHT22;41970;48.774;9.280;2022-10-19T12:08:04;17.50;99.90
56103;DHT22;41970;48.774;9.280;2022-10-19T12:10:44;17.50;99.90
56103;DHT22;41970;48.774;9.280;2022-10-19T12:13:15;17.20;99.90
56103;DHT22;41970;48.774;9.280;2022-10-19T12:15:48;17.10;99.90
56103;DHT22;41970;48.774;9.280;2022-10-19T12:18:37;17.20;99.90
56103;DHT22;41970;48.774;9.280;2022-10-19T12:21:09;17.40;99.90
56103;DHT22;41970;48.774;9.280;2022-10-19T12:23:41;17.50;99.90
56103;DHT22;41970;48.774;9.280;2022-10-19T12:26:13;17.50;99.90
56103;DHT22;41970;48.774;9.280;2022-10-19T12:28:51;17.30;99.90
56103;DHT22;41970;48.774;9.280;2022-10-19T12:31:19;17.10;99.90
56103;DHT22;41970;48.774;9.280;2022-10-19T12:34:12;17.10;99.90
56103;DHT22;41970;48.774;9.280;2022-10-19T12:47:39;17.50;99.90
56103;DHT22;41970;48.774;9.280;2022-10-19T12:50:06;17.60;99.90
56103;DHT22;41970;48.774;9.280;2022-10-19T12:52:44;18.00;99.90
56103;DHT22;41970;48.774;9.280;2022-10-19T12:55:25;17.90;99.90
56103;DHT22;41970;48.774;9.280;2022-10-19T12:58:19;17.90;99.90
56103;DHT22;41970;48.774;9.280;2022-10-19T13:01:00;17.80;99.90
56103;DHT22;41970;48.774;9.280;2022-10-19T13:03:33;17.70;99.90
56103;DHT22;41970;48.774;9.280;2022-10-19T13:06:08;17.70;99.90
56103;DHT22;41970;48.774;9.280;2022-10-19T13:08:52;17.80;99.90
56103;DHT22;41970;48.774;9.280;2022-10-19T13:11:20;17.90;99.90
56103;DHT22;41970;48.774;9.280;2022-10-19T13:14:39;17.90;99.90
56103;DHT22;41970;48.774;9.280;2022-10-19T13:16:59;18.00;99.90
56103;DHT22;41970;48.774;9.280;2022-10-19T13:19:25;18.00;99.90
56103;DHT22;41970;48.774;9.280;2022-10-19T13:29:40;17.90;99.90
56103;DHT22;41970;48.774;9.280;2022-10-19T13:32:34;18.10;99.90
56103;DHT22;41970;48.774;9.280;2022-10-19T13:37:45;18.10;99.90
56103;DHT22;41970;48.774;9.280;2022-10-19T13:40:19;18.10;99.90
56103;DHT22;41970;48.774;9.280;2022-10-19T13:42:45;18.10;99.90
56103;DHT22;41970;48.774;9.280;2022-10-19T13:45:22;18.00;99.90
56103;DHT22;41970;48.774;9.280;2022-10-19T13:47:51;18.10;99.90
56103;DHT22;41970;48.774;9.280;2022-10-19T13:50:35;18.10;99.90
56103;DHT22;41970;48.774;9.280;2022-10-19T13:56:00;17.90;99.90
56103;DHT22;41970;48.774;9.280;2022-10-19T13:58:38;17.90;99.90
56103;DHT22;41970;48.774;9.280;2022-10-19T14:01:36;17.90;99.90
56103;DHT22;41970;48.774;9.280;2022-10-19T14:06:44;17.80;99.90
56103;DHT22;41970;48.774;9.280;2022-10-19T14:09:56;17.80;99.90
56103;DHT22;41970;48.774;9.280;2022-10-19T14:12:27;17.80;99.90
56103;DHT22;41970;48.774;9.280;2022-10-19T14:14:53;17.80;99.90
56103;DHT22;41970;48.774;9.280;2022-10-19T14:17:25;17.90;99.90
56103;DHT22;41970;48.774;9.280;2022-10-19T14:19:57;17.90;99.90
56103;DHT22;41970;48.774;9.280;2022-10-19T14:22:24;17.90;99.90
56103;DHT22;41970;48.774;9.280;2022-10-19T14:24:51;17.90;99.90
56103;DHT22;41970;48.774;9.280;2022-10-19T14:27:24;17.90;99.90
56103;DHT22;41970;48.774;9.280;2022-10-19T14:29:52;17.70;99.90
56103;DHT22;41970;48.774;9.280;2022-10-19T14:32:24;17.60;99.90
56103;DHT22;41970;48.774;9.280;2022-10-19T14:34:51;17.70;99.90
56103;DHT22;41970;48.774;9.280;2022-10-19T14:37:22;17.80;99.90
56103;DHT22;41970;48.774;9.280;2022-10-19T14:39:59;17.80;99.90
56103;DHT22;41970;48.774;9.280;2022-10-19T14:42:35;17.70;99.90
56103;DHT22;41970;48.774;9.280;2022-10-19T14:45:03;17.60;99.90
56103;DHT22;41970;48.774;9.280;2022-10-19T14:47:31;17.50;99.90
56103;DHT22;41970;48.774;9.280;2022-10-19T14:50:01;17.50;99.90
56103;DHT22;41970;48.774;9.280;2022-10-19T14:52:32;17.60;99.90
56103;DHT22;41970;48.774;9.280;2022-10-19T14:55:04;17.60;99.90
56103;DHT22;41970;48.774;9.280;2022-10-19T14:57:34;17.50;99.90
56103;DHT22;41970;48.774;9.280;2022-10-19T15:00:04;17.40;99.90
56103;DHT22;41970;48.774;9.280;2022-10-19T15:02:37;17.50;99.90
56103;DHT22;41970;48.774;9.280;2022-10-19T15:05:05;17.50;99.90
56103;DHT22;41970;48.774;9.280;2022-10-19T15:07:41;17.40;99.90
56103;DHT22;41970;48.774;9.280;2022-10-19T15:10:20;17.40;99.90
56103;DHT22;41970;48.774;9.280;2022-10-19T15:12:48;17.40;99.90
56103;DHT22;41970;48.774;9.280;2022-10-19T15:15:27;17.50;99.90
56103;DHT22;41970;48.774;9.280;2022-10-19T15:18:03;17.60;99.90
56103;DHT22;41970;48.774;9.280;2022-10-19T15:20:31;17.80;99.90
56103;DHT22;41970;48.774;9.280;2022-10-19T15:23:02;17.90;99.90
56103;DHT22;41970;48.774;9.280;2022-10-19T15:26:01;17.90;99.90
56103;DHT22;41970;48.774;9.280;2022-10-19T15:28:34;17.90;99.90
56103;DHT22;41970;48.774;9.280;2022-10-19T15:31:17;17.60;99.90
56103;DHT22;41970;48.774;9.280;2022-10-19T15:34:30;17.50;99.90
56103;DHT22;41970;48.774;9.280;2022-10-19T15:36:58;17.40;99.90
56103;DHT22;41970;48.774;9.280;2022-10-19T15:39:32;17.30;99.90
56103;DHT22;41970;48.774;9.280;2022-10-19T15:44:45;17.30;99.90
56103;DHT22;41970;48.774;9.280;2022-10-19T15:52:20;17.40;99.90
56103;DHT22;41970;48.774;9.280;2022-10-19T15:54:55;17.40;99.90
56103;DHT22;41970;48.774;9.280;2022-10-19T15:57:31;17.30;99.90
56103;DHT22;41970;48.774;9.280;2022-10-19T16:00:01;17.20;99.90
56103;DHT22;41970;48.774;9.280;2022-10-19T16:02:30;17.20;99.90
56103;DHT22;41970;48.774;9.280;2022-10-19T16:04:56;17.30;99.90
56103;DHT22;41970;48.774;9.280;2022-10-19T16:07:27;17.40;99.90
56103;DHT22;41970;48.774;9.280;2022-10-19T16:09:57;17.50;99.90
56103;DHT22;41970;48.774;9.280;2022-10-19T16:12:24;17.50;99.90
56103;DHT22;41970;48.774;9.280;2022-10-19T16:14:51;17.30;99.90
56103;DHT22;41970;48.774;9.280;2022-10-19T16:17:18;17.10;99.90
56103;DHT22;41970;48.774;9.280;2022-10-19T16:19:44;17.00;99.90
56103;DHT22;41970;48.774;9.280;2022-10-19T16:22:11;17.20;99.90
56103;DHT22;41970;48.774;9.280;2022-10-19T16:24:38;17.30;99.90
56103;DHT22;41970;48.774;9.280;2022-10-19T16:27:05;17.40;99.90
56103;DHT22;41970;48.774;9.280;2022-10-19T16:29:31;17.30;99.90
56103;DHT22;41970;48.774;9.280;2022-10-19T16:31:57;17.10;99.90
56103;DHT22;41970;48.774;9.280;2022-10-19T16:34:23;17.20;99.90
56103;DHT22;41970;48.774;9.280;2022-10-19T16:36:49;17.20;99.90
56103;DHT22;41970;48.774;9.280;2022-10-19T16:39:15;17.20;99.90
56103;DHT22;41970;48.774;9.280;2022-10-19T16:41:42;17.20;99.90
56103;DHT22;41970;48.774;9.280;2022-10-19T16:44:11;17.10;99.90
56103;DHT22;41970;48.774;9.280;2022-10-19T16:46:37;17.10;99.90
56103;DHT22;41970;48.774;9.280;2022-10-19T16:49:03;16.90;99.90
56103;DHT22;41970;48.774;9.280;2022-10-19T16:51:39;17.00;99.90
56103;DHT22;41970;48.774;9.280;2022-10-19T16:54:07;17.00;99.90
56103;DHT22;41970;48.774;9.280;2022-10-19T16:56:42;16.80;99.90
56103;DHT22;41970;48.774;9.280;2022-10-19T16:59:14;16.60;99.90
56103;DHT22;41970;48.774;9.280;2022-10-19T17:01:41;16.60;99.90
56103;DHT22;41970;48.774;9.280;2022-10-19T17:04:10;16.60;99.90
56103;DHT22;41970;48.774;9.280;2022-10-19T17:06:36;16.50;99.90
56103;DHT22;41970;48.774;9.280;2022-10-19T17:09:03;16.50;99.90
56103;DHT22;41970;48.774;9.280;2022-10-19T17:11:31;16.40;99.90
56103;DHT22;41970;48.774;9.280;2022-10-19T17:14:03;16.30;99.90
56103;DHT22;41970;48.774;9.280;2022-10-19T17:16:31;16.20;99.90
56103;DHT22;41970;48.774;9.280;2022-10-19T17:18:58;16.10;99.90
56103;DHT22;41970;48.774;9.280;2022-10-19T17:21:26;16.10;99.90
56103;DHT22;41970;48.774;9.280;2022-10-19T17:23:56;16.10;99.90
56103;DHT22;41970;48.774;9.280;2022-10-19T17:26:30;16.10;99.90
56103;DHT22;41970;48.774;9.280;2022-10-19T17:28:58;15.90;99.90
56103;DHT22;41970;48.774;9.280;2022-10-19T17:31:24;15.90;99.90
56103;DHT22;41970;48.774;9.280;2022-10-19T17:33:50;15.80;99.90
56103;DHT22;41970;48.774;9.280;2022-10-19T17:36:19;15.70;99.90
56103;DHT22;41970;48.774;9.280;2022-10-19T17:38:46;15.70;99.90
56103;DHT22;41970;48.774;9.280;2022-10-19T17:41:17;15.80;99.90
56103;DHT22;41970;48.774;9.280;2022-10-19T17:43:47;15.80;99.90
56103;DHT22;41970;48.774;9.280;2022-10-19T17:46:15;15.80;99.90
56103;DHT22;41970;48.774;9.280;2022-10-19T17:48:42;15.80;99.90